Time;durP1;ratioP1;P1;durP2;ratioP2;P2;SDS_P1;SDS_P2;PMS_P1;PMS_P2;Temp;Humidity;BMP_temperature;BMP_pressure;BME280_temperature;BME280_humidity;BME280_pressure;Samples;Min_cycle;Max_cycle;Signal;HPM_P1;HPM_P2
2022/03/17 11:49:27;;;;;;;9.68;7.35;;;7.10;99.90;;;;;;5111324;27;20318;-73
2022/03/17 11:51:59;;;;;;;13.20;7.28;;;7.30;99.90;;;;;;5111210;28;20246;-73
2022/03/17 11:54:25;;;;;;;18.42;8.57;;;7.30;99.90;;;;;;5111162;28;20170;-73
2022/03/17 11:56:59;;;;;;;17.17;9.50;;;7.30;99.90;;;;;;5111203;28;20168;-73
2022/03/17 11:59:49;;;;;;;21.88;10.10;;;7.30;99.90;;;;;;5111047;28;20183;-73
2022/03/17 12:02:16;;;;;;;16.80;10.40;;;7.30;99.90;;;;;;5111012;28;20242;-73
2022/03/17 12:04:48;;;;;;;25.27;12.00;;;7.40;99.90;;;;;;5111020;28;20156;-73
2022/03/17 12:07:16;;;;;;;20.85;11.50;;;7.40;99.90;;;;;;5111152;28;20170;-73
2022/03/17 12:09:42;;;;;;;21.23;12.05;;;7.40;99.90;;;;;;5110927;28;20694;-73
2022/03/17 12:12:26;;;;;;;35.22;11.57;;;7.30;99.90;;;;;;5110852;28;20167;-73
2022/03/17 12:14:57;;;;;;;26.23;13.73;;;7.30;99.90;;;;;;5110792;28;20166;-74
2022/03/17 12:17:24;;;;;;;25.17;13.18;;;7.40;99.90;;;;;;5110758;28;20167;-73
2022/03/17 12:20:19;;;;;;;23.85;12.70;;;7.50;99.90;;;;;;5110923;28;20503;-73
2022/03/17 12:22:44;;;;;;;22.50;12.50;;;7.60;99.90;;;;;;5110684;28;20636;-74
2022/03/17 12:25:16;;;;;;;22.40;11.02;;;7.70;99.90;;;;;;5110571;28;20246;-74
2022/03/17 12:27:43;;;;;;;29.40;9.90;;;7.70;99.90;;;;;;5110490;28;20202;-74
2022/03/17 12:30:11;;;;;;;10.85;6.90;;;7.90;99.90;;;;;;5110551;28;20179;-73
2022/03/17 12:32:38;;;;;;;11.40;7.53;;;7.80;99.90;;;;;;5109243;28;20168;-74
2022/03/17 12:35:06;;;;;;;11.32;6.97;;;7.90;99.90;;;;;;5109162;28;20170;-73
2022/03/17 12:37:33;;;;;;;10.57;6.38;;;7.80;99.90;;;;;;5110335;28;20163;-74
2022/03/17 12:40:20;;;;;;;16.45;8.68;;;7.80;99.90;;;;;;5110311;28;20613;-74
2022/03/17 12:42:47;;;;;;;13.43;7.55;;;7.80;99.90;;;;;;5110054;28;20175;-74
2022/03/17 12:45:19;;;;;;;12.45;6.57;;;7.70;99.90;;;;;;5109040;28;20182;-74
2022/03/17 12:47:46;;;;;;;7.10;6.25;;;7.70;99.90;;;;;;5116912;28;20253;-74
2022/03/17 12:50:21;;;;;;;8.88;6.00;;;7.80;99.90;;;;;;5112203;28;20181;-74
2022/03/17 12:52:48;;;;;;;9.73;5.53;;;7.90;99.90;;;;;;5130564;28;20247;-74
2022/03/17 12:55:16;;;;;;;10.15;5.20;;;7.90;99.90;;;;;;5112442;28;20178;-74
2022/03/17 12:57:42;;;;;;;7.28;5.13;;;8.00;99.90;;;;;;5130475;28;20163;-74
2022/03/17 13:00:10;;;;;;;15.68;6.05;;;8.00;99.90;;;;;;5120253;28;20194;-74
2022/03/17 13:02:36;;;;;;;10.52;5.05;;;8.10;99.90;;;;;;5116701;28;20175;-74
2022/03/17 13:07:50;;;;;;;10.55;3.67;;;8.10;99.90;;;;;;5116757;28;20550;-74
2022/03/17 13:10:16;;;;;;;7.45;3.03;;;8.20;99.90;;;;;;5116524;28;20697;-74
2022/03/17 13:15:28;;;;;;;9.13;3.47;;;8.30;99.90;;;;;;5116799;28;20568;-74
2022/03/17 13:18:01;;;;;;;7.60;3.67;;;8.50;99.90;;;;;;5116427;28;20217;-74
2022/03/17 13:20:27;;;;;;;4.97;3.00;;;8.50;99.90;;;;;;5098012;28;20225;-74
2022/03/17 13:23:07;;;;;;;10.48;3.10;;;8.50;99.90;;;;;;5116330;28;20167;-74
2022/03/17 13:25:38;;;;;;;2.97;2.40;;;8.40;99.90;;;;;;5116238;28;20502;-74
2022/03/17 13:28:14;;;;;;;7.68;2.97;;;8.40;99.90;;;;;;5097887;28;20216;-74
2022/03/17 13:30:51;;;;;;;8.27;2.78;;;8.30;99.90;;;;;;5116089;28;20167;-74
2022/03/17 13:33:34;;;;;;;4.43;2.83;;;8.40;99.90;;;;;;5116109;28;20165;-74
2022/03/17 13:36:00;;;;;;;5.45;2.67;;;8.40;99.90;;;;;;5116037;28;20167;-74
2022/03/17 13:38:30;;;;;;;9.68;3.17;;;8.50;99.90;;;;;;5115963;28;20175;-74
2022/03/17 13:40:57;;;;;;;8.73;2.97;;;8.40;99.90;;;;;;5115958;28;20224;-74
2022/03/17 13:43:32;;;;;;;5.35;2.70;;;8.40;99.90;;;;;;5115944;28;20202;-74
2022/03/17 13:46:15;;;;;;;5.00;2.67;;;8.40;99.90;;;;;;5097556;28;20167;-74
2022/03/17 13:48:41;;;;;;;3.85;2.70;;;8.40;99.90;;;;;;5115642;28;20211;-74
2022/03/17 13:51:06;;;;;;;14.73;3.33;;;8.50;99.90;;;;;;5115761;28;20174;-74
2022/03/17 13:53:34;;;;;;;5.68;2.70;;;8.60;99.90;;;;;;5115728;28;20155;-74
2022/03/17 13:56:08;;;;;;;9.07;3.20;;;8.60;99.90;;;;;;5115656;28;20645;-74
2022/03/17 13:58:36;;;;;;;6.05;2.58;;;8.60;99.90;;;;;;5115544;28;20202;-74
2022/03/17 14:01:12;;;;;;;5.18;3.33;;;8.50;99.90;;;;;;5115465;28;20228;-74
2022/03/17 14:03:45;;;;;;;3.67;2.40;;;8.40;99.90;;;;;;5115541;28;20178;-72
2022/03/17 14:06:15;;;;;;;8.57;3.00;;;8.40;99.90;;;;;;5115488;28;20189;-72
2022/03/17 14:08:47;;;;;;;9.82;2.88;;;8.30;99.90;;;;;;5115229;28;20202;-72
2022/03/17 14:11:15;;;;;;;12.15;2.90;;;8.30;99.90;;;;;;5114373;28;20167;-73
2022/03/17 14:13:49;;;;;;;4.65;2.33;;;8.40;99.90;;;;;;5096369;28;20179;-73
2022/03/17 14:16:16;;;;;;;11.95;3.33;;;8.40;99.90;;;;;;5115290;28;20167;-73
2022/03/17 14:18:45;;;;;;;5.68;2.60;;;8.40;99.90;;;;;;5115178;28;20258;-73
2022/03/17 14:21:12;;;;;;;7.45;2.58;;;8.40;99.90;;;;;;5115197;28;20163;-73
2022/03/17 14:26:25;;;;;;;2.63;2.40;;;8.40;99.90;;;;;;5115378;28;20262;-73
2022/03/17 14:28:51;;;;;;;7.47;2.15;;;8.40;99.90;;;;;;5114883;28;20210;-73
2022/03/17 14:31:20;;;;;;;11.02;3.63;;;8.40;99.90;;;;;;5114953;28;20193;-73
2022/03/17 14:33:47;;;;;;;6.22;2.83;;;8.40;99.90;;;;;;5114939;28;20629;-73
2022/03/17 14:36:14;;;;;;;21.50;3.35;;;8.40;99.90;;;;;;5096628;28;20510;-73
2022/03/17 14:38:41;;;;;;;8.23;2.90;;;8.40;99.90;;;;;;5114790;28;20190;-73
2022/03/17 14:41:11;;;;;;;7.85;3.10;;;8.30;99.90;;;;;;5114678;28;20159;-73
2022/03/17 14:43:38;;;;;;;5.15;3.13;;;8.30;99.90;;;;;;5114813;28;20171;-73
2022/03/17 14:46:04;;;;;;;8.38;3.70;;;8.70;99.90;;;;;;5114690;28;20171;-73
2022/03/17 14:48:29;;;;;;;11.73;3.22;;;8.20;99.90;;;;;;5114400;28;20679;-73
2022/03/17 14:50:55;;;;;;;5.05;3.33;;;8.20;99.90;;;;;;5114529;28;20636;-73
2022/03/17 14:53:21;;;;;;;4.05;3.15;;;8.20;99.90;;;;;;5114582;28;20155;-73
2022/03/17 14:55:47;;;;;;;7.28;3.25;;;8.20;99.90;;;;;;5114377;28;20180;-73
2022/03/17 14:58:13;;;;;;;9.45;3.45;;;8.20;99.90;;;;;;5114690;28;20565;-73
2022/03/17 15:00:41;;;;;;;7.22;3.10;;;8.20;99.90;;;;;;5114403;28;20171;-73
2022/03/17 15:03:07;;;;;;;9.55;3.50;;;8.10;99.90;;;;;;5114398;28;20711;-73
2022/03/17 15:05:33;;;;;;;8.48;3.65;;;8.10;99.90;;;;;;5096069;28;20213;-73
2022/03/17 15:07:58;;;;;;;9.10;3.95;;;8.10;99.90;;;;;;5114212;28;20524;-73
2022/03/17 15:10:24;;;;;;;9.77;5.10;;;8.10;99.90;;;;;;5114382;28;20522;-73
2022/03/17 15:13:00;;;;;;;4.75;3.45;;;8.10;99.90;;;;;;5114318;28;20167;-73
2022/03/17 15:15:45;;;;;;;7.20;3.63;;;8.10;99.90;;;;;;5114206;28;20242;-73
2022/03/17 15:18:20;;;;;;;7.63;3.33;;;8.00;99.90;;;;;;5114094;28;20167;-72
2022/03/17 15:20:49;;;;;;;3.85;3.40;;;8.00;99.90;;;;;;5114047;28;20173;-72
2022/03/17 15:23:15;;;;;;;8.77;3.40;;;8.00;99.90;;;;;;5113801;28;20585;-72
2022/03/17 15:25:41;;;;;;;18.55;5.25;;;8.10;99.90;;;;;;5113956;28;20163;-72
2022/03/17 15:34:50;;;;;;;7.18;3.72;;;8.10;99.90;;;;;;5114043;28;20204;-72
2022/03/17 15:37:16;;;;;;;11.02;4.72;;;8.10;99.90;;;;;;5113828;28;20245;-72
2022/03/17 15:39:42;;;;;;;11.57;4.82;;;8.00;99.90;;;;;;5095630;28;20171;-72
2022/03/17 15:42:10;;;;;;;19.65;4.22;;;8.00;99.90;;;;;;5095443;28;20271;-72
2022/03/17 15:44:36;;;;;;;9.80;4.75;;;8.00;99.90;;;;;;5113680;28;20167;-72
2022/03/17 15:47:02;;;;;;;8.15;4.30;;;8.00;99.90;;;;;;5113448;28;20621;-71
2022/03/17 15:49:27;;;;;;;7.63;4.57;;;8.00;99.90;;;;;;5113822;28;20204;-72
2022/03/17 15:51:53;;;;;;;6.35;4.07;;;7.90;99.90;;;;;;5113763;28;20249;-72
2022/03/17 15:54:19;;;;;;;5.97;4.65;;;7.90;99.90;;;;;;5113286;28;20163;-72
2022/03/17 15:56:44;;;;;;;8.43;4.25;;;7.90;99.90;;;;;;5112819;28;20265;-72
2022/03/17 15:59:10;;;;;;;7.70;4.13;;;7.90;99.90;;;;;;5113455;28;20246;-72
2022/03/17 16:01:36;;;;;;;9.70;3.92;;;7.90;99.90;;;;;;5113629;28;20224;-72
2022/03/17 16:04:02;;;;;;;13.95;5.05;;;8.00;99.90;;;;;;5113439;28;20205;-72
2022/03/17 16:06:28;;;;;;;9.20;5.65;;;7.90;99.90;;;;;;5113447;28;20644;-72
2022/03/17 16:09:12;;;;;;;11.13;5.13;;;7.90;99.90;;;;;;5095353;28;20223;-74
2022/03/17 16:14:28;;;;;;;8.88;4.80;;;7.80;99.90;;;;;;5112908;28;20585;-72
2022/03/17 16:17:00;;;;;;;10.57;5.32;;;7.70;99.90;;;;;;5112576;28;20171;-83
2022/03/17 16:19:26;;;;;;;9.43;4.75;;;7.80;99.90;;;;;;5094982;28;20203;-73
2022/03/17 16:21:52;;;;;;;15.23;5.25;;;7.70;99.90;;;;;;5113362;28;20167;-74
2022/03/17 16:24:19;;;;;;;12.25;5.32;;;7.70;99.90;;;;;;5113355;28;20254;-74
2022/03/17 16:26:44;;;;;;;13.13;4.45;;;7.70;99.90;;;;;;5113362;28;20171;-75
2022/03/17 16:29:10;;;;;;;5.07;4.55;;;7.70;99.90;;;;;;5113329;28;20198;-71
2022/03/17 16:31:45;;;;;;;8.88;4.15;;;7.60;99.90;;;;;;5113238;28;20242;-72
2022/03/17 16:34:15;;;;;;;10.13;3.95;;;7.60;99.90;;;;;;5113835;28;20611;-72
2022/03/17 16:36:45;;;;;;;6.80;3.75;;;7.60;99.90;;;;;;5098799;28;20171;-72
2022/03/17 16:39:11;;;;;;;13.43;5.10;;;7.60;99.90;;;;;;5116971;28;20250;-73
